createdAt,value
2022-09-12T00:10:21.602Z,100.00
2022-09-12T00:13:57.902Z,100.00
2022-09-12T00:17:32.685Z,100.00
2022-09-12T00:30:56.358Z,100.00
2022-09-12T00:34:31.437Z,100.00
2022-09-12T00:38:05.735Z,100.00
2022-09-12T00:45:03.833Z,100.00
2022-09-12T00:48:42.801Z,100.00
2022-09-12T00:52:22.728Z,100.00
2022-09-12T00:56:00.449Z,100.00
2022-09-12T01:09:28.701Z,100.00
2022-09-12T01:13:03.508Z,100.00
2022-09-12T01:16:40.963Z,100.00
2022-09-12T01:31:15.794Z,100.00
2022-09-12T01:34:53.714Z,100.00
2022-09-12T01:38:33.253Z,100.00
2022-09-12T01:42:16.654Z,100.00
2022-09-12T01:45:57.875Z,100.00
2022-09-12T01:49:34.806Z,100.00
2022-09-12T02:04:09.557Z,100.00
2022-09-12T02:07:47.567Z,100.00
2022-09-12T02:11:23.437Z,100.00
2022-09-12T02:14:52.324Z,100.00
2022-09-12T02:28:22.346Z,100.00
2022-09-12T02:32:00.878Z,100.00
2022-09-12T02:35:44.665Z,100.00
2022-09-12T02:39:20.655Z,100.00
2022-09-12T02:42:55.093Z,100.00
2022-09-12T02:46:34.773Z,100.00
2022-09-12T02:50:11.120Z,100.00
2022-09-12T02:53:46.356Z,100.00
2022-09-12T03:04:02.698Z,100.00
2022-09-12T03:07:56.207Z,100.00
2022-09-12T03:25:17.474Z,100.00
2022-09-12T03:28:54.685Z,100.00
2022-09-12T03:35:43.552Z,100.00
2022-09-12T03:39:21.376Z,100.00
2022-09-12T03:42:55.622Z,100.00
2022-09-12T03:46:36.324Z,100.00
2022-09-12T03:50:25.967Z,100.00
2022-09-12T03:54:20.339Z,100.00
2022-09-12T04:11:15.047Z,100.00
2022-09-12T04:14:50.747Z,100.00
2022-09-12T04:18:24.906Z,100.00
2022-09-12T04:21:57.705Z,100.00
2022-09-12T04:38:46.707Z,100.00
2022-09-12T04:42:30.501Z,100.00
2022-09-12T04:46:11.584Z,100.00
2022-09-12T04:59:34.970Z,100.00
2022-09-12T05:03:09.445Z,100.00
2022-09-12T05:06:47.523Z,100.00
2022-09-12T05:10:24.749Z,100.00
2022-09-12T05:20:21.748Z,100.00
2022-09-12T05:23:58.004Z,100.00
2022-09-12T05:27:35.048Z,100.00
2022-09-12T05:41:04.768Z,100.00
2022-09-12T05:44:43.878Z,100.00
2022-09-12T05:48:18.253Z,100.00
2022-09-12T05:51:53.249Z,100.00
2022-09-12T05:58:42.789Z,100.00
2022-09-12T06:02:26.428Z,100.00
2022-09-12T06:05:58.252Z,100.00
2022-09-12T06:09:31.805Z,100.00
2022-09-12T06:13:04.568Z,100.00
2022-09-12T06:16:37.863Z,100.00
2022-09-12T06:20:11.107Z,100.00
2022-09-12T06:23:49.854Z,100.00
2022-09-12T06:41:08.016Z,100.00
2022-09-12T06:44:41.935Z,100.00
2022-09-12T06:48:18.572Z,100.00
2022-09-12T06:51:58.450Z,100.00
2022-09-12T07:05:45.733Z,100.00
2022-09-12T07:09:17.699Z,100.00
2022-09-12T07:12:49.318Z,100.00
2022-09-12T07:16:21.810Z,100.00
2022-09-12T07:19:54.730Z,100.00
2022-09-12T07:23:26.559Z,100.00
2022-09-12T07:26:59.141Z,100.00
2022-09-12T07:40:18.143Z,100.00
2022-09-12T07:43:57.049Z,100.00
2022-09-12T07:47:31.256Z,100.00
2022-09-12T07:51:07.343Z,100.00
2022-09-12T07:54:43.700Z,100.00
2022-09-12T08:04:42.968Z,100.00
2022-09-12T08:08:17.868Z,100.00
2022-09-12T08:11:52.528Z,100.00
2022-09-12T08:15:28.154Z,100.00
2022-09-12T08:19:05.563Z,100.00
2022-09-12T08:32:47.472Z,100.00
2022-09-12T08:36:23.374Z,100.00
2022-09-12T08:39:59.105Z,100.00
2022-09-12T08:43:45.721Z,100.00
2022-09-12T08:47:32.286Z,100.00
2022-09-12T08:51:07.507Z,100.00
2022-09-12T08:57:37.826Z,100.00
2022-09-12T09:01:17.867Z,100.00
2022-09-12T09:04:55.716Z,100.00
2022-09-12T09:08:47.533Z,100.00
2022-09-12T09:12:31.230Z,100.00
2022-09-12T09:37:20.409Z,100.00
2022-09-12T09:41:02.690Z,100.00
2022-09-12T09:44:35.544Z,100.00
2022-09-12T09:48:19.523Z,100.00
2022-09-12T09:51:52.308Z,100.00
2022-09-12T09:55:29.057Z,100.00
2022-09-12T09:58:53.134Z,100.00
2022-09-12T10:16:05.896Z,100.00
2022-09-12T10:19:42.147Z,96.41
2022-09-12T10:23:32.232Z,95.74
2022-09-12T10:27:23.825Z,95.49
2022-09-12T10:31:03.320Z,95.44
2022-09-12T10:34:41.942Z,91.88
2022-09-12T10:51:35.818Z,88.91
2022-09-12T10:55:14.894Z,89.16
2022-09-12T10:59:03.757Z,89.64
2022-09-12T11:02:51.457Z,83.50
2022-09-12T11:06:37.381Z,87.72
2022-09-12T11:27:31.832Z,83.86
2022-09-12T11:31:22.007Z,83.51
2022-09-12T11:35:49.787Z,83.78
2022-09-12T11:52:57.019Z,79.89
2022-09-12T11:56:33.784Z,80.59
2022-09-12T12:00:18.506Z,79.55
2022-09-12T12:03:56.301Z,77.70
2022-09-12T12:07:25.758Z,79.57
2022-09-12T12:11:04.013Z,77.68
2022-09-12T12:35:40.979Z,74.83
2022-09-12T12:39:49.164Z,73.25
2022-09-12T12:43:37.059Z,72.28
2022-09-12T12:47:30.952Z,72.34
2022-09-12T12:51:39.058Z,73.00
2022-09-12T12:55:23.236Z,74.34
2022-09-12T12:59:15.731Z,74.10
2022-09-12T13:12:49.814Z,73.39
2022-09-12T13:16:37.888Z,69.72
2022-09-12T13:20:28.455Z,68.96
2022-09-12T13:24:07.827Z,69.95
2022-09-12T13:44:45.710Z,68.95
2022-09-12T13:48:21.294Z,69.59
2022-09-12T13:52:02.771Z,70.23
2022-09-12T13:55:41.020Z,67.84
2022-09-12T14:09:24.883Z,70.75
2022-09-12T14:13:00.906Z,69.97
2022-09-12T14:16:40.302Z,68.13
2022-09-12T14:20:20.340Z,66.58
2022-09-12T14:23:55.889Z,67.65
2022-09-12T14:27:33.835Z,67.91
2022-09-12T14:47:54.977Z,68.50
2022-09-12T14:51:34.861Z,69.67
2022-09-12T14:55:31.467Z,67.77
2022-09-12T14:59:28.812Z,67.59
2022-09-12T15:03:26.829Z,66.60
2022-09-12T15:07:15.428Z,69.28
2022-09-12T15:10:53.469Z,67.57
2022-09-12T15:31:10.817Z,67.70
2022-09-12T15:34:47.550Z,67.51
2022-09-12T15:38:25.766Z,68.89
2022-09-12T15:42:01.255Z,69.49
2022-09-12T15:45:38.198Z,69.48
2022-09-12T15:49:14.638Z,70.91
2022-09-12T16:02:45.335Z,70.51
2022-09-12T16:06:21.045Z,70.77
2022-09-12T16:09:55.177Z,70.74
2022-09-12T16:26:51.232Z,74.09
2022-09-12T16:30:26.694Z,75.06
2022-09-12T16:34:00.930Z,75.74
2022-09-12T16:37:36.256Z,76.23
2022-09-12T16:54:47.011Z,81.77
2022-09-12T16:58:22.325Z,85.58
2022-09-12T17:02:01.256Z,87.36
2022-09-12T17:05:36.231Z,91.23
2022-09-12T17:09:11.861Z,91.81
2022-09-12T17:12:45.139Z,92.32
2022-09-12T17:16:20.578Z,93.04
2022-09-12T17:19:56.285Z,94.10
2022-09-12T17:36:58.678Z,96.72
2022-09-12T17:40:55.838Z,99.28
2022-09-12T17:44:23.083Z,100.00
2022-09-12T17:47:55.188Z,100.00
2022-09-12T17:51:30.998Z,100.00
2022-09-12T17:58:06.245Z,100.00
2022-09-12T18:01:58.108Z,100.00
2022-09-12T18:05:32.985Z,100.00
2022-09-12T18:12:07.685Z,100.00
2022-09-12T18:15:42.013Z,100.00
2022-09-12T18:19:16.918Z,100.00
2022-09-12T18:22:54.183Z,100.00
2022-09-12T18:36:34.675Z,100.00
2022-09-12T18:40:13.357Z,100.00
2022-09-12T18:43:45.282Z,100.00
2022-09-12T18:47:17.624Z,100.00
2022-09-12T18:50:49.750Z,100.00
2022-09-12T18:54:46.201Z,100.00
2022-09-12T19:05:00.093Z,100.00
2022-09-12T19:08:26.658Z,100.00
2022-09-12T19:11:59.450Z,100.00
2022-09-12T19:15:30.908Z,100.00
2022-09-12T19:18:47.171Z,100.00
2022-09-12T19:22:19.309Z,100.00
2022-09-12T19:25:59.122Z,100.00
2022-09-12T19:46:32.772Z,100.00
2022-09-12T19:50:04.945Z,100.00
2022-09-12T19:53:39.388Z,100.00
2022-09-12T19:57:15.403Z,100.00
2022-09-12T20:17:54.730Z,100.00
2022-09-12T20:21:32.451Z,100.00
2022-09-12T20:25:12.557Z,100.00
2022-09-12T20:28:32.905Z,100.00
2022-09-12T20:32:07.790Z,100.00
2022-09-12T20:35:41.368Z,100.00
2022-09-12T20:39:21.023Z,100.00
2022-09-12T20:43:02.344Z,100.00
2022-09-12T20:56:31.641Z,100.00
2022-09-12T21:00:08.517Z,100.00
2022-09-12T21:03:38.507Z,100.00
2022-09-12T21:07:13.791Z,100.00
2022-09-12T21:17:09.212Z,100.00
2022-09-12T21:20:43.539Z,100.00
2022-09-12T21:24:21.579Z,100.00
2022-09-12T21:41:12.232Z,100.00
2022-09-12T21:44:46.091Z,100.00
2022-09-12T21:48:20.130Z,100.00
2022-09-12T21:51:55.561Z,100.00
2022-09-12T21:55:30.041Z,100.00
2022-09-12T22:12:21.345Z,100.00
2022-09-12T22:15:57.827Z,100.00
2022-09-12T22:34:26.816Z,100.00
2022-09-12T22:37:59.413Z,100.00
2022-09-12T22:41:30.890Z,100.00
2022-09-12T22:45:01.833Z,100.00
2022-09-12T22:48:33.014Z,100.00
2022-09-12T23:01:58.168Z,100.00
2022-09-12T23:05:13.142Z,100.00
2022-09-12T23:08:47.773Z,100.00
2022-09-12T23:12:24.386Z,100.00
2022-09-12T23:16:03.453Z,100.00
2022-09-12T23:19:38.646Z,100.00
2022-09-12T23:33:08.895Z,100.00
2022-09-12T23:36:43.831Z,100.00
2022-09-12T23:40:18.581Z,100.00
2022-09-12T23:46:52.936Z,100.00
2022-09-12T23:50:28.271Z,100.00
2022-09-12T23:54:02.604Z,100.00
